createdAt,value
2019-01-19T00:02:10.093Z,-5.30
2019-01-19T00:06:02.826Z,-5.30
2019-01-19T00:09:19.133Z,-5.30
2019-01-19T00:12:57.934Z,-5.30
2019-01-19T00:16:31.720Z,-5.40
2019-01-19T00:20:19.183Z,-5.40
2019-01-19T00:24:06.919Z,-5.40
2019-01-19T00:28:00.825Z,-5.40
2019-01-19T00:31:40.881Z,-5.40
2019-01-19T00:35:23.383Z,-5.30
2019-01-19T00:39:07.989Z,-5.30
2019-01-19T00:42:53.472Z,-5.30
2019-01-19T00:46:32.271Z,-5.30
2019-01-19T00:49:48.487Z,-5.30
2019-01-19T00:53:29.661Z,-5.30
2019-01-19T00:56:49.105Z,-5.30
2019-01-19T00:59:59.968Z,-5.30
2019-01-19T01:03:41.280Z,-5.20
2019-01-19T01:07:30.561Z,-5.20
2019-01-19T01:10:54.865Z,-5.10
2019-01-19T01:14:39.411Z,-5.20
2019-01-19T01:18:10.173Z,-5.20
2019-01-19T01:21:56.791Z,-5.20
2019-01-19T01:25:43.683Z,-5.20
2019-01-19T01:29:28.167Z,-5.20
2019-01-19T01:33:34.141Z,-5.30
2019-01-19T01:37:17.994Z,-5.20
2019-01-19T01:41:20.747Z,-5.10
2019-01-19T01:45:03.199Z,-4.90
2019-01-19T01:48:55.791Z,-4.90
2019-01-19T01:52:29.332Z,-4.90
2019-01-19T01:55:48.374Z,-5.00
2019-01-19T01:59:35.970Z,-5.10
2019-01-19T02:03:06.995Z,-5.20
2019-01-19T02:06:40.666Z,-5.30
2019-01-19T02:10:22.979Z,-5.10
2019-01-19T02:13:55.012Z,-5.20
2019-01-19T02:17:43.220Z,-5.10
2019-01-19T02:21:29.688Z,-5.10
2019-01-19T02:25:11.520Z,-5.10
2019-01-19T02:28:28.968Z,-5.10
2019-01-19T02:32:17.412Z,-5.20
2019-01-19T02:35:51.021Z,-5.10
2019-01-19T02:39:57.217Z,-5.10
2019-01-19T02:43:28.969Z,-5.00
2019-01-19T02:47:14.867Z,-5.10
2019-01-19T02:50:30.293Z,-5.20
2019-01-19T02:54:13.838Z,-5.20
2019-01-19T02:57:56.377Z,-5.20
2019-01-19T03:01:45.971Z,-5.20
2019-01-19T03:05:23.901Z,-5.30
2019-01-19T03:09:08.994Z,-5.30
2019-01-19T03:12:52.436Z,-5.30
2019-01-19T03:16:25.346Z,-5.10
2019-01-19T03:20:46.987Z,-5.10
2019-01-19T03:24:22.407Z,-5.30
2019-01-19T03:27:37.827Z,-5.30
2019-01-19T03:31:12.466Z,-5.20
2019-01-19T03:34:54.996Z,-5.10
2019-01-19T03:38:37.898Z,-5.10
2019-01-19T03:41:52.593Z,-5.20
2019-01-19T03:45:44.429Z,-5.20
2019-01-19T03:49:18.763Z,-5.30
2019-01-19T03:53:12.436Z,-5.40
2019-01-19T03:57:03.032Z,-5.40
2019-01-19T04:01:03.197Z,-5.40
2019-01-19T04:04:43.182Z,-5.40
2019-01-19T04:08:38.546Z,-5.30
2019-01-19T04:12:15.356Z,-5.20
2019-01-19T04:15:57.946Z,-5.20
2019-01-19T04:19:30.356Z,-5.20
2019-01-19T04:23:00.829Z,-5.30
2019-01-19T04:26:22.658Z,-5.40
2019-01-19T04:29:31.734Z,-5.40
2019-01-19T04:32:38.710Z,-5.50
2019-01-19T04:35:45.651Z,-5.70
2019-01-19T04:38:52.795Z,-5.60
2019-01-19T04:41:59.829Z,-5.40
2019-01-19T04:45:07.074Z,-5.30
2019-01-19T04:48:14.572Z,-5.60
2019-01-19T04:51:21.549Z,-5.70
2019-01-19T04:54:28.480Z,-5.70
2019-01-19T04:57:36.875Z,-5.70
2019-01-19T05:00:43.901Z,-5.70
2019-01-19T05:03:50.924Z,-5.70
2019-01-19T05:06:58.005Z,-5.70
2019-01-19T05:10:06.064Z,-5.60
2019-01-19T05:13:12.931Z,-5.60
2019-01-19T05:16:20.182Z,-5.60
2019-01-19T05:19:27.290Z,-5.60
2019-01-19T05:22:34.498Z,-5.60
2019-01-19T05:25:41.467Z,-5.60
2019-01-19T05:28:48.506Z,-5.70
2019-01-19T05:31:55.477Z,-5.60
2019-01-19T05:35:03.540Z,-5.70
2019-01-19T05:38:10.731Z,-5.70
2019-01-19T05:41:17.646Z,-5.70
2019-01-19T05:44:24.697Z,-5.70
2019-01-19T05:47:31.939Z,-5.60
2019-01-19T05:50:38.956Z,-5.60
2019-01-19T05:53:48.361Z,-5.70
2019-01-19T05:56:55.127Z,-5.70
2019-01-19T06:00:01.969Z,-5.60
2019-01-19T06:03:08.878Z,-5.50
2019-01-19T06:06:16.325Z,-5.50
2019-01-19T06:09:23.434Z,-5.60
2019-01-19T06:12:30.489Z,-5.50
2019-01-19T06:15:37.820Z,-5.60
2019-01-19T06:18:45.393Z,-5.50
2019-01-19T06:21:59.233Z,-5.60
2019-01-19T06:25:07.331Z,-5.70
2019-01-19T06:28:14.343Z,-5.80
2019-01-19T06:31:21.358Z,-5.80
2019-01-19T06:34:29.269Z,-5.80
2019-01-19T06:37:36.396Z,-6.00
2019-01-19T06:40:43.367Z,-6.10
2019-01-19T06:43:50.285Z,-6.10
2019-01-19T06:46:58.357Z,-6.10
2019-01-19T06:50:06.161Z,-6.20
2019-01-19T06:53:13.102Z,-6.10
2019-01-19T06:56:20.043Z,-6.10
2019-01-19T06:59:27.202Z,-6.10
2019-01-19T07:02:36.140Z,-6.10
2019-01-19T07:05:43.433Z,-6.20
2019-01-19T07:08:52.719Z,-6.20
2019-01-19T07:12:00.202Z,-6.10
2019-01-19T07:15:08.269Z,-6.20
2019-01-19T07:18:15.199Z,-6.30
2019-01-19T07:21:22.101Z,-6.30
2019-01-19T07:24:29.023Z,-6.30
2019-01-19T07:27:36.083Z,-6.20
2019-01-19T07:30:43.187Z,-6.10
2019-01-19T07:33:50.466Z,-6.10
2019-01-19T07:36:57.513Z,-6.10
2019-01-19T07:40:05.293Z,-6.00
2019-01-19T07:43:16.356Z,-6.00
2019-01-19T07:46:23.891Z,-6.00
2019-01-19T07:49:31.600Z,-5.80
2019-01-19T07:52:38.531Z,-5.90
2019-01-19T07:55:45.385Z,-5.90
2019-01-19T07:58:53.146Z,-5.90
2019-01-19T08:02:00.958Z,-6.00
2019-01-19T08:05:11.106Z,-5.90
2019-01-19T08:08:18.348Z,-5.80
2019-01-19T08:11:25.341Z,-5.60
2019-01-19T08:14:34.041Z,-5.50
2019-01-19T08:17:41.163Z,-5.40
2019-01-19T08:20:48.472Z,-5.30
2019-01-19T08:23:55.690Z,-5.40
2019-01-19T08:27:02.947Z,-5.30
2019-01-19T08:30:16.559Z,-5.00
2019-01-19T08:33:23.968Z,-4.90
2019-01-19T08:36:31.373Z,-4.90
2019-01-19T08:39:38.364Z,-4.80
2019-01-19T08:42:46.270Z,-4.80
2019-01-19T08:45:53.153Z,-4.70
2019-01-19T08:49:00.722Z,-4.50
2019-01-19T08:52:07.968Z,-4.40
2019-01-19T08:55:14.961Z,-4.20
2019-01-19T08:58:22.112Z,-3.90
2019-01-19T09:01:29.222Z,-3.90
2019-01-19T09:04:36.211Z,-3.90
2019-01-19T09:07:44.361Z,-3.60
2019-01-19T09:10:51.513Z,-3.60
2019-01-19T09:13:58.620Z,-3.60
2019-01-19T09:17:05.726Z,-3.70
2019-01-19T09:20:16.027Z,-3.80
2019-01-19T09:23:29.968Z,-3.70
2019-01-19T09:26:37.037Z,-3.60
2019-01-19T09:29:46.413Z,-3.40
2019-01-19T09:32:53.671Z,-3.30
2019-01-19T09:36:00.792Z,-3.20
2019-01-19T09:39:11.639Z,-3.00
2019-01-19T09:42:19.605Z,-3.00
2019-01-19T09:45:26.608Z,-3.00
2019-01-19T09:48:33.601Z,-2.90
2019-01-19T09:51:40.774Z,-3.10
2019-01-19T09:54:48.849Z,-3.10
2019-01-19T09:57:55.876Z,-2.80
2019-01-19T10:01:03.052Z,-2.60
2019-01-19T10:04:10.245Z,-2.30
2019-01-19T10:07:17.938Z,-2.00
2019-01-19T10:10:25.051Z,-1.90
2019-01-19T10:13:32.556Z,-1.80
2019-01-19T10:16:49.672Z,-1.30
2019-01-19T10:19:56.627Z,-0.90
2019-01-19T10:23:04.092Z,-0.50
2019-01-19T10:26:11.337Z,-0.50
2019-01-19T10:29:18.972Z,-0.60
2019-01-19T10:32:26.427Z,-0.70
2019-01-19T10:35:33.611Z,-0.40
2019-01-19T10:38:40.793Z,-0.50
2019-01-19T10:41:47.999Z,-0.50
2019-01-19T10:44:55.393Z,-0.50
2019-01-19T10:48:02.465Z,0.00
2019-01-19T10:51:09.440Z,0.40
2019-01-19T10:54:16.918Z,0.50
2019-01-19T10:57:24.059Z,1.00
2019-01-19T11:00:32.271Z,1.30
2019-01-19T11:03:39.362Z,1.80
2019-01-19T11:06:46.498Z,2.10
2019-01-19T11:09:53.450Z,2.20
2019-01-19T11:13:01.236Z,2.10
2019-01-19T11:16:08.447Z,2.20
2019-01-19T11:19:15.552Z,2.30
2019-01-19T11:22:22.561Z,2.70
2019-01-19T11:25:31.106Z,2.70
2019-01-19T11:28:38.401Z,3.00
2019-01-19T11:31:45.618Z,3.40
2019-01-19T11:34:52.749Z,3.80
2019-01-19T11:38:00.045Z,3.50
2019-01-19T11:41:07.016Z,3.50
2019-01-19T11:44:13.883Z,3.40
2019-01-19T11:47:20.905Z,2.70
2019-01-19T11:50:27.962Z,2.90
2019-01-19T11:53:37.250Z,2.90
2019-01-19T11:56:44.582Z,2.60
2019-01-19T11:59:51.829Z,2.30
2019-01-19T12:02:58.850Z,1.90
2019-01-19T12:06:05.746Z,1.60
2019-01-19T12:09:12.767Z,1.30
2019-01-19T12:12:19.707Z,0.90
2019-01-19T12:15:27.132Z,0.70
2019-01-19T12:18:34.182Z,0.30
2019-01-19T12:21:41.369Z,0.10
2019-01-19T12:24:48.397Z,0.00
2019-01-19T12:27:55.583Z,-0.10
2019-01-19T12:31:02.756Z,-0.20
2019-01-19T12:34:09.797Z,-0.20
2019-01-19T12:37:17.522Z,-0.20
2019-01-19T12:40:25.385Z,-0.20
2019-01-19T12:43:32.295Z,0.10
2019-01-19T12:46:39.398Z,0.20
2019-01-19T12:49:46.644Z,0.10
2019-01-19T12:52:53.558Z,0.10
2019-01-19T12:56:00.768Z,0.20
2019-01-19T12:59:07.738Z,0.20
2019-01-19T13:02:14.611Z,0.20
2019-01-19T13:05:46.805Z,0.20
2019-01-19T13:08:53.901Z,0.10
2019-01-19T13:12:28.288Z,0.10
2019-01-19T13:16:28.171Z,0.00
2019-01-19T13:20:15.403Z,-0.10
2019-01-19T13:23:53.343Z,-0.30
2019-01-19T13:27:23.022Z,-0.20
2019-01-19T13:31:18.914Z,-0.30
2019-01-19T13:35:15.383Z,-0.40
2019-01-19T13:39:07.849Z,-0.40
2019-01-19T13:42:57.298Z,-0.40
2019-01-19T13:46:53.808Z,-0.40
2019-01-19T13:50:43.232Z,-0.30
2019-01-19T13:54:37.674Z,-0.40
2019-01-19T13:58:21.300Z,-0.30
2019-01-19T14:02:21.997Z,-0.40
2019-01-19T14:06:00.972Z,-0.40
2019-01-19T14:10:07.044Z,-0.30
2019-01-19T14:13:51.430Z,-0.20
2019-01-19T14:17:24.548Z,-0.40
2019-01-19T14:21:08.821Z,-0.50
2019-01-19T14:24:59.723Z,-0.60
2019-01-19T14:28:52.615Z,-0.70
2019-01-19T14:32:43.653Z,-0.80
2019-01-19T14:36:23.498Z,-0.80
2019-01-19T14:39:57.665Z,-0.90
2019-01-19T14:43:47.081Z,-1.00
2019-01-19T14:47:11.858Z,-1.00
2019-01-19T14:50:46.136Z,-1.10
2019-01-19T14:54:23.233Z,-1.10
2019-01-19T14:58:23.287Z,-1.00
2019-01-19T15:01:57.979Z,-1.10
2019-01-19T15:05:27.135Z,-1.20
2019-01-19T15:09:27.084Z,-1.10
2019-01-19T15:12:57.807Z,-1.00
2019-01-19T15:16:25.376Z,-1.10
2019-01-19T15:20:22.572Z,-1.20
2019-01-19T15:24:15.177Z,-1.20
2019-01-19T15:28:00.242Z,-1.40
2019-01-19T15:31:41.011Z,-1.40
2019-01-19T15:35:24.292Z,-1.60
2019-01-19T15:38:59.680Z,-1.70
2019-01-19T15:43:02.615Z,-1.70
2019-01-19T15:46:48.987Z,-1.70
2019-01-19T15:50:44.573Z,-1.70
2019-01-19T15:54:09.437Z,-1.80
2019-01-19T15:57:29.383Z,-1.80
2019-01-19T16:01:13.830Z,-1.90
2019-01-19T16:05:05.031Z,-1.90
2019-01-19T16:08:52.793Z,-2.00
2019-01-19T16:12:32.141Z,-2.00
2019-01-19T16:16:14.689Z,-2.10
2019-01-19T16:20:10.461Z,-2.10
2019-01-19T16:24:18.323Z,-2.10
2019-01-19T16:28:26.586Z,-2.10
2019-01-19T16:32:19.657Z,-2.00
2019-01-19T16:36:03.455Z,-1.80
2019-01-19T16:39:42.147Z,-1.80
2019-01-19T16:43:14.905Z,-1.80
2019-01-19T16:46:44.756Z,-1.90
2019-01-19T16:50:04.710Z,-2.00
2019-01-19T16:53:37.542Z,-2.30
2019-01-19T16:57:37.833Z,-2.40
2019-01-19T17:01:14.525Z,-2.50
2019-01-19T17:04:47.685Z,-2.50
2019-01-19T17:08:41.448Z,-2.50
2019-01-19T17:12:32.139Z,-2.60
2019-01-19T17:16:09.418Z,-2.60
2019-01-19T17:19:56.902Z,-2.60
2019-01-19T17:23:38.736Z,-2.60
2019-01-19T17:27:08.772Z,-2.70
2019-01-19T17:30:59.004Z,-2.70
2019-01-19T17:35:01.956Z,-2.80
2019-01-19T17:38:40.373Z,-2.70
2019-01-19T17:42:15.771Z,-2.70
2019-01-19T17:46:12.569Z,-2.50
2019-01-19T17:49:35.586Z,-2.50
2019-01-19T17:52:59.655Z,-2.40
2019-01-19T17:56:36.296Z,-2.40
2019-01-19T17:59:56.712Z,-2.50
2019-01-19T18:03:53.486Z,-2.50
2019-01-19T18:07:22.695Z,-2.40
2019-01-19T18:10:55.034Z,-2.50
2019-01-19T18:14:26.186Z,-2.60
2019-01-19T18:18:10.211Z,-2.80
2019-01-19T18:21:43.327Z,-2.70
2019-01-19T18:25:52.434Z,-2.80
2019-01-19T18:29:44.955Z,-2.80
2019-01-19T18:33:14.225Z,-3.00
2019-01-19T18:36:58.875Z,-3.10
2019-01-19T18:40:40.487Z,-3.20
2019-01-19T18:44:21.638Z,-3.40
2019-01-19T18:47:37.196Z,-3.40
2019-01-19T18:51:14.885Z,-3.30
2019-01-19T18:55:02.633Z,-3.40
2019-01-19T18:58:55.576Z,-3.40
2019-01-19T19:02:52.237Z,-3.40
2019-01-19T19:06:28.282Z,-3.50
2019-01-19T19:10:16.159Z,-3.60
2019-01-19T19:13:49.745Z,-3.60
2019-01-19T19:17:36.170Z,-3.70
2019-01-19T19:21:14.627Z,-3.80
2019-01-19T19:24:46.864Z,-3.80
2019-01-19T19:28:37.981Z,-3.70
2019-01-19T19:32:11.246Z,-3.70
2019-01-19T19:36:06.475Z,-3.80
2019-01-19T19:39:37.813Z,-3.90
2019-01-19T19:43:39.735Z,-3.80
2019-01-19T19:47:26.505Z,-3.80
2019-01-19T19:51:19.495Z,-3.90
2019-01-19T19:54:27.584Z,-4.10
2019-01-19T19:57:34.812Z,-4.20
2019-01-19T20:00:42.544Z,-4.10
2019-01-19T20:03:49.932Z,-4.20
2019-01-19T20:06:57.046Z,-4.20
2019-01-19T20:10:04.927Z,-4.10
2019-01-19T20:13:14.547Z,-4.10
2019-01-19T20:16:21.495Z,-4.00
2019-01-19T20:19:28.651Z,-4.00
2019-01-19T20:22:35.876Z,-4.00
2019-01-19T20:25:43.073Z,-4.20
2019-01-19T20:28:50.155Z,-4.20
2019-01-19T20:31:57.328Z,-4.20
2019-01-19T20:35:04.897Z,-4.10
2019-01-19T20:38:12.168Z,-4.10
2019-01-19T20:41:19.015Z,-4.20
2019-01-19T20:44:25.970Z,-4.30
2019-01-19T20:47:33.063Z,-4.40
2019-01-19T20:50:39.950Z,-4.40
2019-01-19T20:53:47.066Z,-4.50
2019-01-19T20:56:54.114Z,-4.50
2019-01-19T21:00:01.645Z,-4.50
2019-01-19T21:03:08.618Z,-4.60
2019-01-19T21:06:15.506Z,-4.50
2019-01-19T21:09:22.647Z,-4.50
2019-01-19T21:12:29.817Z,-4.60
2019-01-19T21:15:36.996Z,-4.70
2019-01-19T21:18:43.915Z,-4.50
2019-01-19T21:21:50.813Z,-4.40
2019-01-19T21:24:57.707Z,-4.40
2019-01-19T21:28:04.554Z,-4.40
2019-01-19T21:31:11.444Z,-4.40
2019-01-19T21:34:18.267Z,-4.40
2019-01-19T21:37:25.484Z,-4.40
2019-01-19T21:40:38.773Z,-4.50
2019-01-19T21:43:41.246Z,-4.60
2019-01-19T21:46:48.211Z,-4.60
2019-01-19T21:49:55.188Z,-4.50
2019-01-19T21:53:02.182Z,-4.60
2019-01-19T21:56:09.167Z,-4.70
2019-01-19T21:59:16.056Z,-4.80
2019-01-19T22:02:22.987Z,-4.90
2019-01-19T22:05:31.069Z,-5.00
2019-01-19T22:08:38.349Z,-4.90
2019-01-19T22:11:46.664Z,-4.80
2019-01-19T22:14:53.997Z,-4.80
2019-01-19T22:18:01.145Z,-4.90
2019-01-19T22:21:08.727Z,-4.90
2019-01-19T22:24:17.017Z,-4.90
2019-01-19T22:27:24.499Z,-4.80
2019-01-19T22:30:31.794Z,-4.90
2019-01-19T22:33:39.005Z,-4.90
2019-01-19T22:36:46.268Z,-4.90
2019-01-19T22:39:53.446Z,-4.90
2019-01-19T22:43:04.632Z,-4.90
2019-01-19T22:46:11.654Z,-4.90
2019-01-19T22:49:19.314Z,-4.90
2019-01-19T22:52:26.715Z,-5.00
2019-01-19T22:55:33.823Z,-5.30
2019-01-19T22:58:44.096Z,-5.50
2019-01-19T23:02:11.964Z,-5.60
2019-01-19T23:05:19.123Z,-5.70
2019-01-19T23:08:26.442Z,-5.70
2019-01-19T23:11:33.994Z,-5.70
2019-01-19T23:14:42.179Z,-5.70
2019-01-19T23:17:49.502Z,-5.60
2019-01-19T23:20:58.897Z,-5.40
2019-01-19T23:24:06.368Z,-5.40
2019-01-19T23:27:13.698Z,-5.30
2019-01-19T23:30:20.779Z,-5.50
2019-01-19T23:33:28.393Z,-5.50
2019-01-19T23:36:35.562Z,-5.40
2019-01-19T23:39:42.916Z,-5.40
2019-01-19T23:42:50.091Z,-5.50
2019-01-19T23:45:57.363Z,-5.70
2019-01-19T23:49:04.831Z,-5.80
2019-01-19T23:52:12.079Z,-5.60
2019-01-19T23:55:19.240Z,-5.60
2019-01-19T23:58:26.588Z,-5.70
